Aviation Digital Data Service (ADDS)

Output produced by METARs form (0358 UTC 28 March 2015)
found at http://aviationweather.gov/adds/metars/
 
KGSO 280145Z 2802/2824 01003KT P6SM FEW030 BKN090 
     FM281500 33012G19KT P6SM SKC 
     FM282300 32008KT P6SM SKC